sensor_id;sensor_type;location;lat;lon;timestamp;pressure;altitude;pressure_sealevel;temperature;humidity
77023;BME280;65952;51.440;-2.054;2023-07-08T00:00:23;99787.63;;;23.26;45.75
77023;BME280;65952;51.440;-2.054;2023-07-08T00:02:50;99790.66;;;23.25;45.94
77023;BME280;65952;51.440;-2.054;2023-07-08T00:05:17;99780.19;;;23.21;45.93
77023;BME280;65952;51.440;-2.054;2023-07-08T00:07:43;99781.03;;;23.17;46.05
77023;BME280;65952;51.440;-2.054;2023-07-08T00:10:12;99791.06;;;23.11;46.01
77023;BME280;65952;51.440;-2.054;2023-07-08T00:12:38;99787.75;;;23.09;46.54
77023;BME280;65952;51.440;-2.054;2023-07-08T00:15:04;99776.78;;;23.04;46.45
77023;BME280;65952;51.440;-2.054;2023-07-08T00:17:30;99777.53;;;22.94;47.00
77023;BME280;65952;51.440;-2.054;2023-07-08T00:19:55;99776.41;;;22.90;46.92
77023;BME280;65952;51.440;-2.054;2023-07-08T00:22:21;99776.38;;;22.85;46.75
77023;BME280;65952;51.440;-2.054;2023-07-08T00:24:50;99775.56;;;22.84;46.86
77023;BME280;65952;51.440;-2.054;2023-07-08T00:27:16;99778.56;;;22.83;47.33
77023;BME280;65952;51.440;-2.054;2023-07-08T00:29:41;99761.09;;;22.94;46.66
77023;BME280;65952;51.440;-2.054;2023-07-08T00:32:15;99754.56;;;22.95;46.37
77023;BME280;65952;51.440;-2.054;2023-07-08T00:34:41;99763.00;;;22.88;46.82
77023;BME280;65952;51.440;-2.054;2023-07-08T00:37:11;99755.03;;;22.82;46.90
77023;BME280;65952;51.440;-2.054;2023-07-08T00:39:36;99749.00;;;22.80;47.09
77023;BME280;65952;51.440;-2.054;2023-07-08T00:42:10;99749.00;;;22.80;47.08
77023;BME280;65952;51.440;-2.054;2023-07-08T00:44:37;99742.38;;;22.70;47.65
77023;BME280;65952;51.440;-2.054;2023-07-08T00:47:07;99737.47;;;22.78;47.33
77023;BME280;65952;51.440;-2.054;2023-07-08T00:49:47;99730.09;;;22.78;47.35
77023;BME280;65952;51.440;-2.054;2023-07-08T00:52:27;99733.00;;;22.66;47.75
77023;BME280;65952;51.440;-2.054;2023-07-08T00:55:06;99729.19;;;22.67;47.86
77023;BME280;65952;51.440;-2.054;2023-07-08T00:57:35;99733.88;;;22.72;48.22
77023;BME280;65952;51.440;-2.054;2023-07-08T01:00:04;99737.94;;;22.64;48.19
77023;BME280;65952;51.440;-2.054;2023-07-08T01:02:33;99735.19;;;22.59;48.37
77023;BME280;65952;51.440;-2.054;2023-07-08T01:05:19;99733.06;;;22.71;48.45
77023;BME280;65952;51.440;-2.054;2023-07-08T01:07:50;99721.59;;;22.75;48.19
77023;BME280;65952;51.440;-2.054;2023-07-08T01:10:20;99713.41;;;22.80;48.25
77023;BME280;65952;51.440;-2.054;2023-07-08T01:12:53;99730.84;;;22.68;48.63
77023;BME280;65952;51.440;-2.054;2023-07-08T01:15:22;99737.44;;;22.72;48.54
77023;BME280;65952;51.440;-2.054;2023-07-08T01:17:48;99725.72;;;22.77;48.67
77023;BME280;65952;51.440;-2.054;2023-07-08T01:20:19;99720.50;;;22.76;48.41
77023;BME280;65952;51.440;-2.054;2023-07-08T01:22:44;99725.47;;;22.84;48.69
77023;BME280;65952;51.440;-2.054;2023-07-08T01:25:11;99727.69;;;22.87;48.67
77023;BME280;65952;51.440;-2.054;2023-07-08T01:27:42;99718.94;;;22.90;48.62
77023;BME280;65952;51.440;-2.054;2023-07-08T01:30:10;99718.47;;;23.03;48.44
77023;BME280;65952;51.440;-2.054;2023-07-08T01:32:43;99729.91;;;22.95;48.38
77023;BME280;65952;51.440;-2.054;2023-07-08T01:35:11;99732.53;;;23.17;47.82
77023;BME280;65952;51.440;-2.054;2023-07-08T01:37:40;99732.56;;;23.23;48.16
77023;BME280;65952;51.440;-2.054;2023-07-08T01:42:41;99735.75;;;23.09;48.40
77023;BME280;65952;51.440;-2.054;2023-07-08T01:45:12;99733.63;;;23.16;47.89
77023;BME280;65952;51.440;-2.054;2023-07-08T01:47:39;99733.69;;;23.32;47.76
77023;BME280;65952;51.440;-2.054;2023-07-08T01:50:06;99728.81;;;23.39;47.82
77023;BME280;65952;51.440;-2.054;2023-07-08T01:52:32;99741.09;;;23.31;47.87
77023;BME280;65952;51.440;-2.054;2023-07-08T01:54:57;99741.91;;;23.32;47.75
77023;BME280;65952;51.440;-2.054;2023-07-08T01:57:23;99735.03;;;23.24;47.98
77023;BME280;65952;51.440;-2.054;2023-07-08T01:59:48;99738.19;;;23.05;48.38
77023;BME280;65952;51.440;-2.054;2023-07-08T02:02:14;99731.53;;;22.91;48.97
77023;BME280;65952;51.440;-2.054;2023-07-08T02:04:39;99727.91;;;22.80;49.28
77023;BME280;65952;51.440;-2.054;2023-07-08T02:07:04;99718.34;;;22.83;49.42
77023;BME280;65952;51.440;-2.054;2023-07-08T02:09:30;99712.34;;;22.86;49.40
77023;BME280;65952;51.440;-2.054;2023-07-08T02:11:56;99712.13;;;22.93;49.07
77023;BME280;65952;51.440;-2.054;2023-07-08T02:14:22;99707.53;;;23.03;48.87
77023;BME280;65952;51.440;-2.054;2023-07-08T02:16:47;99709.91;;;22.84;49.67
77023;BME280;65952;51.440;-2.054;2023-07-08T02:19:13;99720.28;;;22.87;49.46
77023;BME280;65952;51.440;-2.054;2023-07-08T02:21:39;99719.50;;;22.87;49.57
77023;BME280;65952;51.440;-2.054;2023-07-08T02:24:05;99716.00;;;22.97;49.51
77023;BME280;65952;51.440;-2.054;2023-07-08T02:26:30;99724.94;;;22.82;49.86
77023;BME280;65952;51.440;-2.054;2023-07-08T02:28:57;99708.41;;;22.71;49.75
77023;BME280;65952;51.440;-2.054;2023-07-08T02:31:23;99720.97;;;22.62;50.32
77023;BME280;65952;51.440;-2.054;2023-07-08T02:33:50;99718.22;;;22.62;50.44
77023;BME280;65952;51.440;-2.054;2023-07-08T02:36:15;99702.22;;;22.44;50.67
77023;BME280;65952;51.440;-2.054;2023-07-08T02:38:41;99710.41;;;22.44;50.83
77023;BME280;65952;51.440;-2.054;2023-07-08T02:41:07;99716.97;;;22.43;50.53
77023;BME280;65952;51.440;-2.054;2023-07-08T02:43:33;99718.50;;;22.33;50.90
77023;BME280;65952;51.440;-2.054;2023-07-08T02:45:58;99725.06;;;22.32;50.87
77023;BME280;65952;51.440;-2.054;2023-07-08T02:48:23;99721.22;;;22.28;51.00
77023;BME280;65952;51.440;-2.054;2023-07-08T02:50:49;99721.63;;;22.42;50.90
77023;BME280;65952;51.440;-2.054;2023-07-08T02:53:14;99719.56;;;22.27;51.46
77023;BME280;65952;51.440;-2.054;2023-07-08T02:55:40;99730.75;;;22.26;51.64
77023;BME280;65952;51.440;-2.054;2023-07-08T02:58:08;99739.69;;;22.16;51.55
77023;BME280;65952;51.440;-2.054;2023-07-08T03:00:34;99740.66;;;22.04;51.81
77023;BME280;65952;51.440;-2.054;2023-07-08T03:03:03;99743.75;;;22.13;51.87
77023;BME280;65952;51.440;-2.054;2023-07-08T03:05:28;99750.00;;;22.08;52.03
77023;BME280;65952;51.440;-2.054;2023-07-08T03:07:54;99749.81;;;21.88;52.96
77023;BME280;65952;51.440;-2.054;2023-07-08T03:10:19;99746.03;;;21.94;52.33
77023;BME280;65952;51.440;-2.054;2023-07-08T03:12:44;99737.59;;;21.73;53.12
77023;BME280;65952;51.440;-2.054;2023-07-08T03:15:10;99738.50;;;21.79;53.34
77023;BME280;65952;51.440;-2.054;2023-07-08T03:17:35;99748.16;;;21.87;52.96
77023;BME280;65952;51.440;-2.054;2023-07-08T03:20:00;99741.13;;;21.69;53.55
77023;BME280;65952;51.440;-2.054;2023-07-08T03:22:26;99749.69;;;21.55;53.93
77023;BME280;65952;51.440;-2.054;2023-07-08T03:24:51;99747.63;;;21.63;53.71
77023;BME280;65952;51.440;-2.054;2023-07-08T03:27:17;99759.13;;;21.65;53.93
77023;BME280;65952;51.440;-2.054;2023-07-08T03:29:42;99758.66;;;21.73;53.65
77023;BME280;65952;51.440;-2.054;2023-07-08T03:32:11;99755.91;;;21.73;53.58
77023;BME280;65952;51.440;-2.054;2023-07-08T03:34:38;99762.66;;;21.65;54.25
77023;BME280;65952;51.440;-2.054;2023-07-08T03:37:04;99764.69;;;21.75;53.95
77023;BME280;65952;51.440;-2.054;2023-07-08T03:39:29;99781.09;;;21.75;53.98
77023;BME280;65952;51.440;-2.054;2023-07-08T03:41:57;99777.06;;;21.61;54.33
77023;BME280;65952;51.440;-2.054;2023-07-08T03:44:22;99779.63;;;21.67;54.36
77023;BME280;65952;51.440;-2.054;2023-07-08T03:46:49;99772.41;;;21.56;54.84
77023;BME280;65952;51.440;-2.054;2023-07-08T03:49:15;99784.78;;;21.47;55.26
77023;BME280;65952;51.440;-2.054;2023-07-08T03:51:41;99786.44;;;21.65;55.06
77023;BME280;65952;51.440;-2.054;2023-07-08T03:54:10;99789.22;;;21.70;54.67
77023;BME280;65952;51.440;-2.054;2023-07-08T03:56:36;99793.72;;;21.81;54.43
77023;BME280;65952;51.440;-2.054;2023-07-08T03:59:01;99797.72;;;21.73;54.88
77023;BME280;65952;51.440;-2.054;2023-07-08T04:01:27;99809.38;;;21.64;55.23
77023;BME280;65952;51.440;-2.054;2023-07-08T04:03:55;99812.47;;;21.72;54.90
77023;BME280;65952;51.440;-2.054;2023-07-08T04:06:21;99811.78;;;21.60;55.46
77023;BME280;65952;51.440;-2.054;2023-07-08T04:08:46;99816.09;;;21.56;55.40
77023;BME280;65952;51.440;-2.054;2023-07-08T04:11:14;99822.75;;;21.65;55.08
77023;BME280;65952;51.440;-2.054;2023-07-08T04:13:40;99823.50;;;21.61;55.70
77023;BME280;65952;51.440;-2.054;2023-07-08T04:16:06;99824.75;;;21.53;55.90
77023;BME280;65952;51.440;-2.054;2023-07-08T04:18:32;99832.94;;;21.53;56.07
77023;BME280;65952;51.440;-2.054;2023-07-08T04:20:58;99840.56;;;21.51;56.53
77023;BME280;65952;51.440;-2.054;2023-07-08T04:23:24;99843.22;;;21.46;56.64
77023;BME280;65952;51.440;-2.054;2023-07-08T04:25:52;99825.34;;;21.55;56.62
77023;BME280;65952;51.440;-2.054;2023-07-08T04:28:20;99840.69;;;21.56;56.42
77023;BME280;65952;51.440;-2.054;2023-07-08T04:30:45;99837.81;;;21.51;56.70
77023;BME280;65952;51.440;-2.054;2023-07-08T04:33:12;99837.16;;;21.61;56.80
77023;BME280;65952;51.440;-2.054;2023-07-08T04:35:38;99850.56;;;21.62;56.72
77023;BME280;65952;51.440;-2.054;2023-07-08T04:38:05;99864.31;;;21.67;56.95
77023;BME280;65952;51.440;-2.054;2023-07-08T04:40:35;99861.50;;;21.84;56.73
77023;BME280;65952;51.440;-2.054;2023-07-08T04:43:08;99865.09;;;21.85;57.20
77023;BME280;65952;51.440;-2.054;2023-07-08T04:45:36;99866.41;;;22.04;56.44
77023;BME280;65952;51.440;-2.054;2023-07-08T04:48:03;99862.81;;;22.26;55.77
77023;BME280;65952;51.440;-2.054;2023-07-08T04:50:34;99863.19;;;22.35;56.28
77023;BME280;65952;51.440;-2.054;2023-07-08T04:53:00;99855.41;;;22.49;56.25
77023;BME280;65952;51.440;-2.054;2023-07-08T04:55:25;99861.06;;;22.64;55.70
77023;BME280;65952;51.440;-2.054;2023-07-08T04:57:50;99869.94;;;22.77;55.35
77023;BME280;65952;51.440;-2.054;2023-07-08T05:00:17;99861.19;;;22.80;55.40
77023;BME280;65952;51.440;-2.054;2023-07-08T05:02:44;99852.56;;;22.93;55.11
77023;BME280;65952;51.440;-2.054;2023-07-08T05:05:10;99861.06;;;22.97;55.16
77023;BME280;65952;51.440;-2.054;2023-07-08T05:07:35;99865.06;;;23.16;54.66
77023;BME280;65952;51.440;-2.054;2023-07-08T05:10:01;99874.22;;;23.32;54.18
77023;BME280;65952;51.440;-2.054;2023-07-08T05:12:27;99879.75;;;23.43;54.01
77023;BME280;65952;51.440;-2.054;2023-07-08T05:14:52;99886.13;;;23.53;54.08
77023;BME280;65952;51.440;-2.054;2023-07-08T05:17:18;99879.84;;;23.58;53.94
77023;BME280;65952;51.440;-2.054;2023-07-08T05:19:43;99886.47;;;23.67;54.07
77023;BME280;65952;51.440;-2.054;2023-07-08T05:22:11;99891.44;;;23.76;53.62
77023;BME280;65952;51.440;-2.054;2023-07-08T05:24:36;99881.03;;;23.78;53.55
77023;BME280;65952;51.440;-2.054;2023-07-08T05:27:02;99885.97;;;23.81;53.32
77023;BME280;65952;51.440;-2.054;2023-07-08T05:29:28;99895.59;;;23.83;53.72
77023;BME280;65952;51.440;-2.054;2023-07-08T05:31:53;99900.69;;;23.64;54.04
77023;BME280;65952;51.440;-2.054;2023-07-08T05:34:19;99900.69;;;23.64;53.80
77023;BME280;65952;51.440;-2.054;2023-07-08T05:36:45;99905.91;;;23.66;54.10
77023;BME280;65952;51.440;-2.054;2023-07-08T05:39:10;99905.69;;;23.73;53.84
77023;BME280;65952;51.440;-2.054;2023-07-08T05:41:36;99903.00;;;23.83;53.43
77023;BME280;65952;51.440;-2.054;2023-07-08T05:44:01;99900.09;;;24.00;53.64
77023;BME280;65952;51.440;-2.054;2023-07-08T05:46:27;99896.06;;;24.18;52.89
77023;BME280;65952;51.440;-2.054;2023-07-08T05:48:52;99907.06;;;24.33;52.95
77023;BME280;65952;51.440;-2.054;2023-07-08T05:51:17;99911.47;;;24.45;51.98
77023;BME280;65952;51.440;-2.054;2023-07-08T05:53:43;99923.00;;;24.42;52.01
77023;BME280;65952;51.440;-2.054;2023-07-08T05:56:08;99925.75;;;24.42;51.83
77023;BME280;65952;51.440;-2.054;2023-07-08T05:58:34;99930.09;;;24.38;51.79
77023;BME280;65952;51.440;-2.054;2023-07-08T06:00:59;99938.91;;;24.34;51.88
77023;BME280;65952;51.440;-2.054;2023-07-08T06:03:25;99939.38;;;24.21;51.72
77023;BME280;65952;51.440;-2.054;2023-07-08T06:05:50;99944.84;;;24.16;52.23
77023;BME280;65952;51.440;-2.054;2023-07-08T06:08:16;99951.34;;;23.94;52.70
77023;BME280;65952;51.440;-2.054;2023-07-08T06:10:43;99953.38;;;23.72;52.79
77023;BME280;65952;51.440;-2.054;2023-07-08T06:13:10;99951.41;;;23.67;53.34
77023;BME280;65952;51.440;-2.054;2023-07-08T06:15:36;99949.22;;;23.64;53.61
77023;BME280;65952;51.440;-2.054;2023-07-08T06:18:01;99947.78;;;23.56;53.92
77023;BME280;65952;51.440;-2.054;2023-07-08T06:20:28;99934.88;;;23.51;53.93
77023;BME280;65952;51.440;-2.054;2023-07-08T06:22:54;99949.84;;;23.39;54.06
77023;BME280;65952;51.440;-2.054;2023-07-08T06:25:20;99966.81;;;23.35;54.65
77023;BME280;65952;51.440;-2.054;2023-07-08T06:27:45;99976.41;;;23.38;54.62
77023;BME280;65952;51.440;-2.054;2023-07-08T06:30:11;99972.75;;;23.60;54.72
77023;BME280;65952;51.440;-2.054;2023-07-08T06:32:36;99964.00;;;24.06;53.03
77023;BME280;65952;51.440;-2.054;2023-07-08T06:35:02;99969.56;;;25.26;51.49
77023;BME280;65952;51.440;-2.054;2023-07-08T06:37:28;99973.84;;;26.80;47.09
77023;BME280;65952;51.440;-2.054;2023-07-08T06:39:53;99968.78;;;28.20;43.36
77023;BME280;65952;51.440;-2.054;2023-07-08T06:42:19;99950.22;;;29.55;41.76
77023;BME280;65952;51.440;-2.054;2023-07-08T06:44:44;99946.31;;;31.04;38.06
77023;BME280;65952;51.440;-2.054;2023-07-08T06:47:17;99959.06;;;32.22;35.57
77023;BME280;65952;51.440;-2.054;2023-07-08T06:49:43;99967.31;;;33.24;32.81
77023;BME280;65952;51.440;-2.054;2023-07-08T06:52:08;99984.78;;;33.59;32.14
77023;BME280;65952;51.440;-2.054;2023-07-08T06:54:34;99982.97;;;34.11;32.84
77023;BME280;65952;51.440;-2.054;2023-07-08T06:56:59;99979.66;;;34.98;30.50
77023;BME280;65952;51.440;-2.054;2023-07-08T06:59:24;99979.75;;;34.81;31.23
77023;BME280;65952;51.440;-2.054;2023-07-08T07:01:50;99985.38;;;34.51;31.50
77023;BME280;65952;51.440;-2.054;2023-07-08T07:04:15;99978.47;;;33.89;32.34
77023;BME280;65952;51.440;-2.054;2023-07-08T07:06:40;99978.44;;;32.71;34.49
77023;BME280;65952;51.440;-2.054;2023-07-08T07:09:06;99986.41;;;30.33;38.89
77023;BME280;65952;51.440;-2.054;2023-07-08T07:11:31;99990.59;;;29.56;40.34
77023;BME280;65952;51.440;-2.054;2023-07-08T07:13:57;99995.44;;;28.74;42.61
77023;BME280;65952;51.440;-2.054;2023-07-08T07:16:22;99996.84;;;27.74;44.75
77023;BME280;65952;51.440;-2.054;2023-07-08T07:18:48;100009.81;;;26.99;46.55
77023;BME280;65952;51.440;-2.054;2023-07-08T07:21:15;100013.03;;;26.56;48.70
77023;BME280;65952;51.440;-2.054;2023-07-08T07:23:40;100010.97;;;26.27;49.15
77023;BME280;65952;51.440;-2.054;2023-07-08T07:26:06;100021.78;;;25.83;50.58
77023;BME280;65952;51.440;-2.054;2023-07-08T07:28:32;100024.00;;;25.55;51.26
77023;BME280;65952;51.440;-2.054;2023-07-08T07:30:59;100024.25;;;25.33;52.20
77023;BME280;65952;51.440;-2.054;2023-07-08T07:33:25;100034.09;;;25.08;52.78
77023;BME280;65952;51.440;-2.054;2023-07-08T07:35:51;100040.09;;;24.89;53.21
77023;BME280;65952;51.440;-2.054;2023-07-08T07:38:17;100033.75;;;24.78;53.64
77023;BME280;65952;51.440;-2.054;2023-07-08T07:40:43;100034.84;;;24.77;53.60
77023;BME280;65952;51.440;-2.054;2023-07-08T07:43:08;100033.44;;;24.64;53.99
77023;BME280;65952;51.440;-2.054;2023-07-08T07:45:33;100046.75;;;24.40;54.22
77023;BME280;65952;51.440;-2.054;2023-07-08T07:47:59;100045.09;;;24.39;53.51
77023;BME280;65952;51.440;-2.054;2023-07-08T07:50:24;100037.94;;;24.38;53.39
77023;BME280;65952;51.440;-2.054;2023-07-08T07:52:50;100032.16;;;24.29;53.75
77023;BME280;65952;51.440;-2.054;2023-07-08T07:55:15;100027.66;;;24.13;54.20
77023;BME280;65952;51.440;-2.054;2023-07-08T07:57:40;100031.53;;;24.17;54.30
77023;BME280;65952;51.440;-2.054;2023-07-08T08:00:08;100023.81;;;24.09;54.29
77023;BME280;65952;51.440;-2.054;2023-07-08T08:02:34;100017.72;;;23.96;54.72
77023;BME280;65952;51.440;-2.054;2023-07-08T08:05:00;100028.47;;;24.08;54.37
77023;BME280;65952;51.440;-2.054;2023-07-08T08:07:25;100028.53;;;23.86;55.42
77023;BME280;65952;51.440;-2.054;2023-07-08T08:09:51;100042.69;;;23.67;56.00
77023;BME280;65952;51.440;-2.054;2023-07-08T08:12:16;100047.38;;;23.40;56.95
77023;BME280;65952;51.440;-2.054;2023-07-08T08:14:41;100063.91;;;23.50;56.85
77023;BME280;65952;51.440;-2.054;2023-07-08T08:17:07;100083.31;;;23.16;57.97
77023;BME280;65952;51.440;-2.054;2023-07-08T08:19:32;100107.28;;;23.09;58.67
77023;BME280;65952;51.440;-2.054;2023-07-08T08:21:58;100124.47;;;23.04;58.90
77023;BME280;65952;51.440;-2.054;2023-07-08T08:24:29;100132.94;;;22.80;59.95
77023;BME280;65952;51.440;-2.054;2023-07-08T08:26:54;100132.44;;;22.83;60.26
77023;BME280;65952;51.440;-2.054;2023-07-08T08:29:19;100141.34;;;22.73;61.76
77023;BME280;65952;51.440;-2.054;2023-07-08T08:31:45;100118.19;;;22.59;62.04
77023;BME280;65952;51.440;-2.054;2023-07-08T08:34:10;100102.38;;;22.44;62.64
77023;BME280;65952;51.440;-2.054;2023-07-08T08:36:35;100087.44;;;22.35;63.13
77023;BME280;65952;51.440;-2.054;2023-07-08T08:39:01;100078.28;;;22.24;63.68
77023;BME280;65952;51.440;-2.054;2023-07-08T08:41:32;100072.97;;;22.17;64.57
77023;BME280;65952;51.440;-2.054;2023-07-08T08:43:58;100067.16;;;22.14;65.15
77023;BME280;65952;51.440;-2.054;2023-07-08T08:48:57;100044.06;;;22.04;65.35
77023;BME280;65952;51.440;-2.054;2023-07-08T08:51:26;100036.47;;;22.06;65.69
77023;BME280;65952;51.440;-2.054;2023-07-08T08:53:56;100031.31;;;22.10;65.60
77023;BME280;65952;51.440;-2.054;2023-07-08T08:56:28;100025.16;;;22.20;66.02
77023;BME280;65952;51.440;-2.054;2023-07-08T09:01:29;100034.59;;;22.29;66.10
77023;BME280;65952;51.440;-2.054;2023-07-08T09:03:58;100056.28;;;22.36;66.63
77023;BME280;65952;51.440;-2.054;2023-07-08T09:06:27;100056.97;;;22.43;66.29
77023;BME280;65952;51.440;-2.054;2023-07-08T09:08:54;100055.28;;;22.42;67.03
77023;BME280;65952;51.440;-2.054;2023-07-08T09:11:45;100044.63;;;22.40;66.54
77023;BME280;65952;51.440;-2.054;2023-07-08T09:14:20;100060.19;;;22.40;67.15
77023;BME280;65952;51.440;-2.054;2023-07-08T09:16:56;100049.81;;;22.42;66.19
77023;BME280;65952;51.440;-2.054;2023-07-08T09:19:30;100052.31;;;22.44;66.09
77023;BME280;65952;51.440;-2.054;2023-07-08T09:22:14;100041.28;;;22.38;65.87
77023;BME280;65952;51.440;-2.054;2023-07-08T09:25:05;100043.94;;;22.33;65.92
77023;BME280;65952;51.440;-2.054;2023-07-08T09:27:33;100044.47;;;22.30;65.64
77023;BME280;65952;51.440;-2.054;2023-07-08T09:29:59;100028.53;;;22.27;66.53
77023;BME280;65952;51.440;-2.054;2023-07-08T09:32:27;100010.13;;;22.00;67.03
77023;BME280;65952;51.440;-2.054;2023-07-08T09:34:55;100016.75;;;22.04;67.64
77023;BME280;65952;51.440;-2.054;2023-07-08T09:37:24;100054.75;;;22.06;68.21
77023;BME280;65952;51.440;-2.054;2023-07-08T09:39:52;100050.47;;;21.93;67.80
77023;BME280;65952;51.440;-2.054;2023-07-08T09:42:21;100044.81;;;22.00;68.16
77023;BME280;65952;51.440;-2.054;2023-07-08T09:44:47;100044.34;;;22.03;67.88
77023;BME280;65952;51.440;-2.054;2023-07-08T09:47:33;100051.41;;;22.21;67.82
77023;BME280;65952;51.440;-2.054;2023-07-08T09:50:00;100049.88;;;22.47;66.88
77023;BME280;65952;51.440;-2.054;2023-07-08T09:52:28;100047.22;;;22.75;65.87
77023;BME280;65952;51.440;-2.054;2023-07-08T09:54:54;100047.13;;;22.92;65.67
77023;BME280;65952;51.440;-2.054;2023-07-08T09:57:26;100058.25;;;23.07;65.32
77023;BME280;65952;51.440;-2.054;2023-07-08T09:59:57;100059.22;;;23.18;65.17
77023;BME280;65952;51.440;-2.054;2023-07-08T10:02:31;100070.75;;;23.20;65.24
77023;BME280;65952;51.440;-2.054;2023-07-08T10:05:00;100071.50;;;23.15;65.70
77023;BME280;65952;51.440;-2.054;2023-07-08T10:07:29;100085.69;;;23.12;66.92
77023;BME280;65952;51.440;-2.054;2023-07-08T10:09:57;100103.03;;;23.18;66.55
77023;BME280;65952;51.440;-2.054;2023-07-08T10:12:24;100108.63;;;23.28;66.47
77023;BME280;65952;51.440;-2.054;2023-07-08T10:14:58;100118.47;;;23.29;66.12
77023;BME280;65952;51.440;-2.054;2023-07-08T10:17:24;100125.50;;;23.20;65.39
77023;BME280;65952;51.440;-2.054;2023-07-08T10:19:50;100126.78;;;23.12;65.21
77023;BME280;65952;51.440;-2.054;2023-07-08T10:27:55;100123.66;;;23.03;65.05
77023;BME280;65952;51.440;-2.054;2023-07-08T10:30:25;100119.84;;;23.04;64.94
77023;BME280;65952;51.440;-2.054;2023-07-08T10:36:05;100144.41;;;22.77;65.62
77023;BME280;65952;51.440;-2.054;2023-07-08T10:41:40;100146.75;;;22.68;65.99
77023;BME280;65952;51.440;-2.054;2023-07-08T10:52:50;100154.38;;;22.66;66.84
77023;BME280;65952;51.440;-2.054;2023-07-08T11:04:14;100162.78;;;22.60;66.60
77023;BME280;65952;51.440;-2.054;2023-07-08T11:09:08;100151.16;;;22.69;66.54
77023;BME280;65952;51.440;-2.054;2023-07-08T11:11:56;100151.94;;;22.87;66.16
77023;BME280;65952;51.440;-2.054;2023-07-08T11:14:35;100147.00;;;23.11;65.29
77023;BME280;65952;51.440;-2.054;2023-07-08T11:17:13;100153.69;;;23.43;64.98
77023;BME280;65952;51.440;-2.054;2023-07-08T11:20:02;100165.69;;;23.64;64.85
77023;BME280;65952;51.440;-2.054;2023-07-08T11:22:31;100174.41;;;23.88;63.78
77023;BME280;65952;51.440;-2.054;2023-07-08T11:25:00;100171.19;;;23.91;63.43
77023;BME280;65952;51.440;-2.054;2023-07-08T11:27:29;100184.63;;;23.93;63.67
77023;BME280;65952;51.440;-2.054;2023-07-08T11:30:13;100194.13;;;23.85;63.34
77023;BME280;65952;51.440;-2.054;2023-07-08T11:32:39;100183.63;;;23.77;63.74
77023;BME280;65952;51.440;-2.054;2023-07-08T11:35:07;100184.13;;;23.68;63.55
77023;BME280;65952;51.440;-2.054;2023-07-08T11:37:38;100191.44;;;23.63;63.96
77023;BME280;65952;51.440;-2.054;2023-07-08T11:42:34;100203.63;;;23.50;64.70
77023;BME280;65952;51.440;-2.054;2023-07-08T11:45:00;100202.94;;;23.60;64.99
77023;BME280;65952;51.440;-2.054;2023-07-08T11:47:38;100195.97;;;23.52;64.64
77023;BME280;65952;51.440;-2.054;2023-07-08T11:50:21;100202.66;;;23.61;65.00
77023;BME280;65952;51.440;-2.054;2023-07-08T11:53:08;100189.88;;;23.72;64.95
77023;BME280;65952;51.440;-2.054;2023-07-08T11:55:49;100194.66;;;23.82;64.14
77023;BME280;65952;51.440;-2.054;2023-07-08T11:58:25;100194.75;;;23.92;64.06
77023;BME280;65952;51.440;-2.054;2023-07-08T12:00:59;100196.81;;;24.07;63.48
77023;BME280;65952;51.440;-2.054;2023-07-08T12:03:34;100192.00;;;24.20;62.93
77023;BME280;65952;51.440;-2.054;2023-07-08T12:06:00;100198.50;;;24.46;62.92
77023;BME280;65952;51.440;-2.054;2023-07-08T12:08:37;100199.50;;;24.67;62.05
77023;BME280;65952;51.440;-2.054;2023-07-08T12:11:10;100192.81;;;25.01;62.03
77023;BME280;65952;51.440;-2.054;2023-07-08T12:13:37;100200.66;;;25.35;60.97
77023;BME280;65952;51.440;-2.054;2023-07-08T12:16:09;100208.31;;;25.27;60.96
77023;BME280;65952;51.440;-2.054;2023-07-08T12:18:38;100208.41;;;25.58;59.66
77023;BME280;65952;51.440;-2.054;2023-07-08T12:21:05;100209.84;;;25.66;59.01
77023;BME280;65952;51.440;-2.054;2023-07-08T12:23:32;100213.97;;;25.69;58.92
77023;BME280;65952;51.440;-2.054;2023-07-08T12:25:58;100212.88;;;25.75;58.21
77023;BME280;65952;51.440;-2.054;2023-07-08T12:28:24;100222.38;;;25.36;58.49
77023;BME280;65952;51.440;-2.054;2023-07-08T12:30:50;100224.75;;;25.17;59.11
77023;BME280;65952;51.440;-2.054;2023-07-08T12:33:19;100215.59;;;25.01;60.00
77023;BME280;65952;51.440;-2.054;2023-07-08T12:35:47;100204.19;;;24.72;60.60
77023;BME280;65952;51.440;-2.054;2023-07-08T12:38:33;100194.13;;;24.50;60.52
77023;BME280;65952;51.440;-2.054;2023-07-08T12:41:05;100203.91;;;24.36;61.03
77023;BME280;65952;51.440;-2.054;2023-07-08T12:43:33;100205.53;;;24.31;61.68
77023;BME280;65952;51.440;-2.054;2023-07-08T12:45:58;100204.69;;;24.31;61.27
77023;BME280;65952;51.440;-2.054;2023-07-08T12:48:24;100199.56;;;24.40;61.17
77023;BME280;65952;51.440;-2.054;2023-07-08T12:50:49;100199.25;;;24.74;61.19
77023;BME280;65952;51.440;-2.054;2023-07-08T12:53:15;100204.47;;;25.28;59.62
77023;BME280;65952;51.440;-2.054;2023-07-08T12:55:45;100215.34;;;25.61;58.83
77023;BME280;65952;51.440;-2.054;2023-07-08T12:58:42;100212.84;;;25.64;58.75
77023;BME280;65952;51.440;-2.054;2023-07-08T13:01:14;100215.34;;;25.66;58.93
77023;BME280;65952;51.440;-2.054;2023-07-08T13:03:43;100222.44;;;25.57;58.84
77023;BME280;65952;51.440;-2.054;2023-07-08T13:06:11;100226.47;;;25.34;59.37
77023;BME280;65952;51.440;-2.054;2023-07-08T13:08:38;100233.78;;;25.07;60.20
77023;BME280;65952;51.440;-2.054;2023-07-08T13:11:05;100241.75;;;24.66;60.31
77023;BME280;65952;51.440;-2.054;2023-07-08T13:13:34;100239.34;;;24.42;61.11
77023;BME280;65952;51.440;-2.054;2023-07-08T13:16:01;100241.47;;;24.35;62.35
77023;BME280;65952;51.440;-2.054;2023-07-08T13:18:40;100248.47;;;24.15;62.67
77023;BME280;65952;51.440;-2.054;2023-07-08T13:21:13;100238.84;;;24.13;63.03
77023;BME280;65952;51.440;-2.054;2023-07-08T13:23:39;100239.53;;;24.30;62.77
77023;BME280;65952;51.440;-2.054;2023-07-08T13:26:19;100240.00;;;24.55;62.23
77023;BME280;65952;51.440;-2.054;2023-07-08T13:28:46;100234.94;;;24.74;62.02
77023;BME280;65952;51.440;-2.054;2023-07-08T13:31:19;100228.34;;;24.70;62.00